Time;durP1;ratioP1;P1;durP2;ratioP2;P2;SDS_P1;SDS_P2;PMS_P1;PMS_P2;Temp;Humidity;BMP_temperature;BMP_pressure;BME280_temperature;BME280_humidity;BME280_pressure;Samples;Min_cycle;Max_cycle;Signal;HPM_P1;HPM_P2
2023/03/28 03:00:10;;;;;;;0.20;0.20;;;17.50;49.60;;;;;;6186258;22;46019;31
2023/03/28 03:02:37;;;;;;;0.40;0.28;;;17.50;49.70;;;;;;4969768;28;48337;-58
2023/03/28 03:05:03;;;;;;;0.40;0.30;;;17.50;49.70;;;;;;5008638;28;45169;-59
2023/03/28 03:07:29;;;;;;;0.30;0.20;;;17.50;49.70;;;;;;5021218;28;45098;-57
2023/03/28 03:09:55;;;;;;;0.30;0.20;;;17.50;49.70;;;;;;4992613;28;45313;-58
2023/03/28 03:12:22;;;;;;;0.30;0.30;;;17.50;49.70;;;;;;5004666;28;45449;-57
2023/03/28 03:14:49;;;;;;;0.30;0.20;;;17.50;49.70;;;;;;5017161;28;45580;-59
2023/03/28 03:17:18;;;;;;;0.10;0.10;;;17.50;49.70;;;;;;4999896;28;47426;-58
2023/03/28 03:19:44;;;;;;;0.10;0.10;;;17.50;49.80;;;;;;5008993;28;45472;-59
2023/03/28 03:22:10;;;;;;;0.20;0.10;;;17.50;49.70;;;;;;5003175;28;46294;-55
2023/03/28 03:24:35;;;;;;;0.20;0.17;;;17.50;49.80;;;;;;5012831;28;45162;-58
2023/03/28 03:27:02;;;;;;;0.20;0.20;;;17.40;49.70;;;;;;5006400;28;45155;-59
2023/03/28 03:29:27;;;;;;;0.55;0.20;;;17.40;49.70;;;;;;5009608;28;45441;-55
2023/03/28 03:31:53;;;;;;;0.20;0.20;;;17.40;49.70;;;;;;5000294;28;45199;-59
2023/03/28 03:34:18;;;;;;;0.20;0.20;;;17.40;49.70;;;;;;5012557;28;45231;-56
2023/03/28 03:36:44;;;;;;;0.20;0.20;;;17.40;49.70;;;;;;5005114;28;45123;-58
2023/03/28 03:39:09;;;;;;;0.28;0.20;;;17.40;49.70;;;;;;5012463;28;45021;-59
2023/03/28 03:41:35;;;;;;;0.20;0.20;;;17.30;49.70;;;;;;5004586;28;45400;-58
2023/03/28 03:44:01;;;;;;;0.35;0.13;;;17.40;49.80;;;;;;5009698;28;45425;-58
2023/03/28 03:46:26;;;;;;;0.35;0.20;;;17.30;49.70;;;;;;5000805;28;45277;-58
2023/03/28 03:48:52;;;;;;;0.30;0.30;;;17.40;49.70;;;;;;5008430;28;45544;-57
2023/03/28 03:51:17;;;;;;;0.30;0.30;;;17.40;49.70;;;;;;5002767;28;45957;-59
2023/03/28 03:53:43;;;;;;;0.30;0.20;;;17.30;49.70;;;;;;5005023;28;45377;-58
2023/03/28 03:56:09;;;;;;;0.55;0.40;;;17.30;49.70;;;;;;5005191;28;45659;-59
2023/03/28 03:58:35;;;;;;;0.50;0.20;;;17.30;49.70;;;;;;5007820;28;46191;-57
2023/03/28 04:01:00;;;;;;;0.22;0.22;;;17.30;49.70;;;;;;4997124;28;45084;-57
2023/03/28 04:03:26;;;;;;;0.15;0.15;;;17.30;49.70;;;;;;4990831;28;45763;-58
2023/03/28 04:05:53;;;;;;;0.38;0.20;;;17.30;49.70;;;;;;4983264;28;45219;-55
2023/03/28 04:08:19;;;;;;;0.22;0.22;;;17.30;49.70;;;;;;4988849;28;45195;-60
2023/03/28 04:10:45;;;;;;;0.20;0.20;;;17.30;49.80;;;;;;4976909;28;46200;-57
2023/03/28 04:13:11;;;;;;;0.40;0.25;;;17.20;49.70;;;;;;4983122;28;45596;-59
2023/03/28 04:15:36;;;;;;;0.90;0.40;;;17.20;49.70;;;;;;4969401;28;45310;-58
2023/03/28 04:18:03;;;;;;;0.17;0.17;;;17.20;49.70;;;;;;4984384;28;45203;-57
2023/03/28 04:20:30;;;;;;;1.38;0.13;;;17.20;49.70;;;;;;4964819;28;46224;-57
2023/03/28 04:22:57;;;;;;;0.20;0.17;;;17.20;49.70;;;;;;4972588;28;45218;-58
2023/03/28 04:25:23;;;;;;;0.20;0.20;;;17.20;49.70;;;;;;4981970;28;45163;-58
2023/03/28 04:27:53;;;;;;;0.25;0.20;;;17.20;49.70;;;;;;4996873;28;45160;-58
2023/03/28 04:30:19;;;;;;;0.40;0.30;;;17.20;49.70;;;;;;4983610;28;47035;-60
2023/03/28 04:32:48;;;;;;;0.20;0.10;;;17.20;49.70;;;;;;4971695;28;45251;-59
2023/03/28 04:35:15;;;;;;;1.02;0.40;;;17.20;49.80;;;;;;4970583;28;44946;-58
2023/03/28 04:37:41;;;;;;;0.88;0.30;;;17.10;49.70;;;;;;4991718;28;45745;-57
2023/03/28 04:40:09;;;;;;;0.22;0.22;;;17.10;49.70;;;;;;4989793;28;46202;-57
2023/03/28 04:42:38;;;;;;;0.20;0.20;;;17.10;49.70;;;;;;4985880;28;45613;-56
2023/03/28 04:45:05;;;;;;;0.30;0.30;;;17.10;49.80;;;;;;4986987;28;45352;-60
2023/03/28 04:47:31;;;;;;;0.52;0.20;;;17.10;49.80;;;;;;4986970;28;45692;-57
2023/03/28 04:49:57;;;;;;;0.38;0.30;;;17.00;49.70;;;;;;4990476;28;45951;-58
2023/03/28 04:52:23;;;;;;;0.20;0.20;;;17.10;49.70;;;;;;4966672;28;45435;-54
2023/03/28 04:54:48;;;;;;;1.23;0.30;;;17.00;49.70;;;;;;4991253;28;45668;-57
2023/03/28 04:57:14;;;;;;;0.15;0.15;;;17.10;49.70;;;;;;4983011;28;45343;-54
2023/03/28 04:59:40;;;;;;;0.35;0.28;;;17.00;49.70;;;;;;4988946;28;45564;-58
2023/03/28 05:02:05;;;;;;;0.40;0.25;;;17.00;49.70;;;;;;4967137;28;45981;-57
2023/03/28 05:04:31;;;;;;;0.40;0.20;;;17.00;49.70;;;;;;5012952;28;45677;-57
2023/03/28 05:06:56;;;;;;;0.20;0.20;;;17.00;49.70;;;;;;4988417;28;45570;-57
2023/03/28 05:09:22;;;;;;;0.38;0.30;;;17.00;49.70;;;;;;5015572;28;47099;-57
2023/03/28 05:11:48;;;;;;;0.40;0.20;;;17.00;49.70;;;;;;5007409;28;45665;-57
2023/03/28 05:14:13;;;;;;;0.63;0.30;;;17.00;49.70;;;;;;5015771;28;45459;-59
2023/03/28 05:16:39;;;;;;;0.10;0.10;;;17.00;49.70;;;;;;5004418;28;45277;-57
2023/03/28 05:19:05;;;;;;;0.22;0.22;;;17.00;49.70;;;;;;4990062;28;47029;-56
2023/03/28 05:21:31;;;;;;;0.85;0.35;;;16.90;49.70;;;;;;5007619;28;45288;-59
2023/03/28 05:23:56;;;;;;;0.47;0.25;;;16.90;49.70;;;;;;5013743;28;45654;-58
2023/03/28 05:26:22;;;;;;;0.45;0.28;;;16.90;49.70;;;;;;4984384;28;45365;-58
2023/03/28 05:28:47;;;;;;;0.45;0.30;;;16.90;49.70;;;;;;5012251;28;46111;-57
2023/03/28 05:31:14;;;;;;;0.32;0.20;;;16.90;49.70;;;;;;5004084;28;45974;-57
2023/03/28 05:33:40;;;;;;;0.30;0.30;;;16.90;49.70;;;;;;4995109;28;45428;-57
2023/03/28 05:36:06;;;;;;;0.60;0.25;;;16.90;49.70;;;;;;4998547;28;46260;-58
2023/03/28 05:38:32;;;;;;;0.57;0.30;;;16.90;49.70;;;;;;5009687;28;45198;-58
2023/03/28 05:40:58;;;;;;;0.30;0.22;;;16.80;49.70;;;;;;4993664;28;45542;-57
2023/03/28 05:43:23;;;;;;;0.22;0.13;;;16.80;49.60;;;;;;4992833;28;45358;-59
2023/03/28 05:45:49;;;;;;;1.05;0.20;;;16.80;49.70;;;;;;4999970;28;45514;-57
2023/03/28 05:48:15;;;;;;;0.20;0.20;;;16.90;49.70;;;;;;4996410;28;46441;-58
2023/03/28 05:50:40;;;;;;;0.13;0.10;;;16.80;49.70;;;;;;4990990;28;44905;-58
2023/03/28 05:53:06;;;;;;;0.13;0.13;;;16.80;49.70;;;;;;5012740;28;45443;-56
2023/03/28 05:55:31;;;;;;;0.75;0.20;;;16.80;49.60;;;;;;5007837;28;45229;-58
2023/03/28 05:57:58;;;;;;;0.55;0.20;;;16.80;49.70;;;;;;5012123;28;46202;-56
2023/03/28 06:00:23;;;;;;;2.70;0.22;;;17.00;49.60;;;;;;4983496;28;45164;-57
2023/03/28 06:02:50;;;;;;;0.52;0.20;;;17.10;49.40;;;;;;5009607;28;45225;-57
2023/03/28 06:05:16;;;;;;;0.55;0.38;;;17.30;49.20;;;;;;4994823;28;45258;-57
2023/03/28 06:07:42;;;;;;;1.05;0.20;;;17.50;48.90;;;;;;5012166;28;46044;-58
2023/03/28 06:10:08;;;;;;;0.38;0.20;;;17.70;48.60;;;;;;5016780;28;45446;-60
2023/03/28 06:12:33;;;;;;;0.20;0.20;;;17.90;48.30;;;;;;5011025;28;45924;-58
2023/03/28 06:14:59;;;;;;;0.30;0.30;;;18.10;48.00;;;;;;5009680;28;45047;-59
2023/03/28 06:17:25;;;;;;;0.47;0.20;;;18.30;47.70;;;;;;5002073;28;45511;-58
2023/03/28 06:19:51;;;;;;;0.28;0.20;;;18.50;47.50;;;;;;5012073;28;44961;-58
2023/03/28 06:22:17;;;;;;;0.30;0.22;;;18.60;47.30;;;;;;5010995;28;45300;-58
2023/03/28 06:24:42;;;;;;;0.28;0.20;;;18.80;47.20;;;;;;5012740;28;45669;-58
2023/03/28 06:27:08;;;;;;;0.55;0.30;;;18.90;47.00;;;;;;4989666;28;46869;-58
2023/03/28 06:29:33;;;;;;;0.60;0.22;;;19.10;47.00;;;;;;5010316;28;45257;-58
2023/03/28 06:31:59;;;;;;;0.45;0.20;;;19.20;46.80;;;;;;4998883;28;45338;-59
2023/03/28 06:34:24;;;;;;;0.17;0.17;;;19.30;46.80;;;;;;5009991;28;45133;-59
2023/03/28 06:36:50;;;;;;;0.63;0.20;;;19.40;46.70;;;;;;4990741;28;44968;-55
2023/03/28 06:39:15;;;;;;;0.10;0.10;;;19.50;46.60;;;;;;5011407;28;45509;-57
2023/03/28 06:41:41;;;;;;;0.57;0.10;;;19.60;46.60;;;;;;5007027;28;45192;-57
2023/03/28 06:44:06;;;;;;;0.30;0.20;;;19.70;46.60;;;;;;4999789;28;45034;-60
2023/03/28 06:46:32;;;;;;;0.55;0.20;;;19.80;46.50;;;;;;5003566;28;45555;-62
2023/03/28 06:48:58;;;;;;;0.47;0.20;;;20.00;46.50;;;;;;4991604;28;45392;-59
2023/03/28 06:51:23;;;;;;;0.25;0.20;;;20.10;46.30;;;;;;5010180;28;45231;-57
2023/03/28 06:53:49;;;;;;;0.10;0.10;;;20.20;46.30;;;;;;5009718;28;45467;-57
2023/03/28 06:56:14;;;;;;;2.45;0.22;;;20.40;46.10;;;;;;4990364;28;45954;-58
2023/03/28 06:58:40;;;;;;;0.20;0.20;;;20.50;46.00;;;;;;5014266;28;44932;-60
2023/03/28 07:01:06;;;;;;;2.75;0.30;;;20.60;45.90;;;;;;5002592;28;45263;-59
2023/03/28 07:03:31;;;;;;;0.43;0.20;;;20.70;45.80;;;;;;5009993;28;45418;-57
2023/03/28 07:05:57;;;;;;;0.10;0.10;;;20.80;45.70;;;;;;4990162;28;46298;-59
2023/03/28 07:08:22;;;;;;;0.32;0.20;;;21.00;45.60;;;;;;4978951;28;45542;-60
2023/03/28 07:10:48;;;;;;;0.10;0.10;;;21.10;45.50;;;;;;5008917;28;45200;-59
2023/03/28 07:13:14;;;;;;;0.95;0.10;;;21.20;45.40;;;;;;5008395;28;45159;-57
2023/03/28 07:15:40;;;;;;;0.30;0.10;;;21.20;45.20;;;;;;4989555;28;45586;-59
2023/03/28 07:18:09;;;;;;;0.75;0.17;;;21.30;45.10;;;;;;4993751;28;45266;-59
2023/03/28 07:20:37;;;;;;;0.32;0.20;;;21.40;45.00;;;;;;5009653;28;45412;-60
2023/03/28 07:23:03;;;;;;;0.10;0.08;;;21.50;44.90;;;;;;4995434;28;45258;-59
2023/03/28 07:25:28;;;;;;;0.20;0.10;;;21.60;44.90;;;;;;5008851;28;46339;-59
2023/03/28 07:27:54;;;;;;;0.17;0.10;;;21.60;44.80;;;;;;5014026;28;45474;-59
2023/03/28 07:30:19;;;;;;;0.47;0.20;;;21.70;44.70;;;;;;5005462;28;45184;-59
2023/03/28 07:32:45;;;;;;;2.08;0.20;;;21.70;44.70;;;;;;5009699;28;45469;-59
2023/03/28 07:35:11;;;;;;;0.15;0.10;;;21.80;44.70;;;;;;5002189;28;46117;-59
2023/03/28 07:37:37;;;;;;;0.10;0.10;;;21.80;44.50;;;;;;5008314;28;44642;-59
2023/03/28 07:40:04;;;;;;;0.22;0.20;;;21.90;44.50;;;;;;5013162;28;45081;-60
2023/03/28 07:42:29;;;;;;;1.65;0.40;;;21.90;44.50;;;;;;4976060;28;45316;-59
2023/03/28 07:44:55;;;;;;;0.35;0.13;;;22.00;44.50;;;;;;5012325;28;46242;-60
2023/03/28 07:47:21;;;;;;;0.30;0.20;;;22.10;44.40;;;;;;4997840;28;45147;-57
2023/03/28 07:49:46;;;;;;;0.40;0.20;;;22.20;44.30;;;;;;5013066;28;45610;-59
2023/03/28 07:52:12;;;;;;;0.15;0.15;;;22.20;44.20;;;;;;5009090;28;45246;-59
2023/03/28 07:54:38;;;;;;;0.77;0.20;;;22.40;44.30;;;;;;5009573;28;46342;-61
2023/03/28 07:57:04;;;;;;;0.10;0.10;;;22.40;44.20;;;;;;4997135;28;45409;-61
2023/03/28 07:59:29;;;;;;;0.73;0.30;;;22.50;44.70;;;;;;5011853;28;45570;-61
2023/03/28 08:01:55;;;;;;;0.50;0.30;;;22.60;43.90;;;;;;4999800;28;45496;-60
2023/03/28 08:04:20;;;;;;;0.45;0.20;;;22.70;43.90;;;;;;5007480;28;46185;-58
2023/03/28 08:06:46;;;;;;;0.63;0.20;;;22.70;43.80;;;;;;5007648;28;44981;-60
2023/03/28 08:09:13;;;;;;;0.75;0.20;;;22.80;43.80;;;;;;5016116;28;44676;-59
2023/03/28 08:11:39;;;;;;;0.25;0.20;;;22.80;43.70;;;;;;5010340;28;45462;-59
2023/03/28 08:14:08;;;;;;;0.55;0.20;;;22.80;43.70;;;;;;5002663;28;46101;-56
2023/03/28 08:16:33;;;;;;;0.25;0.15;;;22.90;43.70;;;;;;5008076;28;45208;-60
2023/03/28 08:18:59;;;;;;;0.38;0.17;;;22.90;43.60;;;;;;5015732;28;45364;-61
2023/03/28 08:21:26;;;;;;;0.60;0.20;;;22.90;43.50;;;;;;5015115;28;45406;-58
2023/03/28 08:23:52;;;;;;;0.55;0.25;;;23.00;43.60;;;;;;5019217;28;45502;-60
2023/03/28 08:26:17;;;;;;;0.70;0.20;;;23.00;43.60;;;;;;5011052;28;45808;-58
2023/03/28 08:28:43;;;;;;;1.02;0.10;;;23.00;43.50;;;;;;5013636;28;45285;-59
2023/03/28 08:31:12;;;;;;;0.30;0.20;;;23.10;43.50;;;;;;5006740;28;45687;-59
2023/03/28 08:33:39;;;;;;;0.68;0.20;;;23.10;43.40;;;;;;5013277;28;46189;-56
2023/03/28 08:36:05;;;;;;;0.15;0.13;;;23.20;44.00;;;;;;5010249;28;44639;-59
2023/03/28 08:38:31;;;;;;;0.15;0.10;;;23.20;43.40;;;;;;5011916;28;45275;-61
2023/03/28 08:41:02;;;;;;;0.10;0.10;;;23.20;43.30;;;;;;5011692;28;44728;-59
2023/03/28 08:43:46;;;;;;;0.47;0.20;;;23.30;43.40;;;;;;5009997;28;45507;-60
2023/03/28 08:46:12;;;;;;;0.52;0.22;;;23.30;42.90;;;;;;5007519;28;45214;-59
2023/03/28 08:48:43;;;;;;;0.65;0.30;;;23.30;43.20;;;;;;5012285;28;45245;-61
2023/03/28 08:51:34;;;;;;;1.48;0.40;;;23.40;43.30;;;;;;5008248;28;45348;-58
2023/03/28 08:54:22;;;;;;;0.60;0.25;;;23.50;42.90;;;;;;4992632;28;47499;-60
2023/03/28 08:56:50;;;;;;;0.95;0.20;;;23.60;42.30;;;;;;5009209;28;44951;-60
2023/03/28 08:59:17;;;;;;;0.85;0.47;;;23.60;42.90;;;;;;5012183;28;45506;-58
2023/03/28 09:01:43;;;;;;;0.10;0.10;;;23.60;42.90;;;;;;5001550;28;45481;-59
2023/03/28 09:04:38;;;;;;;0.25;0.10;;;23.60;43.00;;;;;;5009308;28;46164;-59
2023/03/28 09:07:14;;;;;;;0.25;0.20;;;23.70;42.50;;;;;;5002473;28;45218;-61
2023/03/28 09:09:48;;;;;;;0.35;0.10;;;23.70;42.70;;;;;;5011621;28;45233;-61
2023/03/28 09:12:42;;;;;;;0.22;0.20;;;23.70;42.60;;;;;;5003145;28;45411;-59
2023/03/28 09:15:20;;;;;;;0.47;0.28;;;23.70;42.40;;;;;;5011798;28;45976;-60
2023/03/28 09:18:07;;;;;;;0.32;0.20;;;23.80;42.80;;;;;;5006692;28;45295;-59
2023/03/28 09:20:35;;;;;;;0.70;0.30;;;23.80;42.40;;;;;;5007546;28;45553;-59
2023/03/28 09:23:19;;;;;;;0.10;0.10;;;23.80;43.30;;;;;;5015375;28;45748;-59
2023/03/28 09:25:47;;;;;;;0.10;0.10;;;23.90;42.30;;;;;;5008894;28;45144;-58
2023/03/28 09:28:13;;;;;;;0.28;0.10;;;23.90;42.70;;;;;;5015566;28;45468;-61
2023/03/28 09:30:44;;;;;;;0.28;0.10;;;23.90;42.70;;;;;;5008070;28;45394;-57
2023/03/28 09:33:15;;;;;;;0.28;0.10;;;23.90;42.60;;;;;;5003277;28;45204;-59
2023/03/28 09:35:41;;;;;;;0.50;0.22;;;24.00;42.50;;;;;;5003406;28;46844;-61
2023/03/28 09:38:15;;;;;;;0.63;0.10;;;24.00;42.60;;;;;;5013205;28;44878;-59
2023/03/28 09:40:45;;;;;;;1.23;0.20;;;24.00;42.40;;;;;;4993061;28;45666;-61
2023/03/28 09:43:32;;;;;;;0.10;0.10;;;24.00;42.50;;;;;;4995862;28;45663;-60
2023/03/28 09:46:05;;;;;;;1.17;0.20;;;24.10;42.50;;;;;;5005153;28;45540;-61
2023/03/28 09:48:35;;;;;;;1.02;0.20;;;24.10;42.40;;;;;;4992373;28;45431;-60
2023/03/28 09:51:00;;;;;;;0.40;0.30;;;24.10;42.40;;;;;;4987668;28;44651;-60
2023/03/28 09:53:34;;;;;;;0.15;0.10;;;24.10;42.40;;;;;;5015441;28;45020;-60
2023/03/28 09:56:12;;;;;;;0.22;0.13;;;24.20;42.30;;;;;;5007354;28;45083;-62
2023/03/28 09:58:55;;;;;;;0.30;0.10;;;24.20;42.20;;;;;;4993992;28;45699;-61
2023/03/28 10:01:26;;;;;;;;;;;24.30;42.20;;;;;;5000328;28;44876;-59
2023/03/28 10:03:55;;;;;;;0.20;0.10;;;24.30;41.90;;;;;;5014689;28;45253;-59
2023/03/28 10:06:26;;;;;;;0.30;0.20;;;24.30;42.30;;;;;;5009275;28;46189;-60
2023/03/28 10:08:51;;;;;;;0.85;0.20;;;24.30;42.10;;;;;;5004695;28;45224;-60
2023/03/28 10:11:21;;;;;;;1.10;0.30;;;24.40;42.20;;;;;;5001412;28;45371;-58
2023/03/28 10:13:51;;;;;;;0.45;0.20;;;24.40;42.30;;;;;;5011379;28;45657;-60
2023/03/28 10:16:26;;;;;;;0.20;0.10;;;24.40;42.10;;;;;;5008421;28;46733;-59
2023/03/28 10:18:51;;;;;;;0.10;0.10;;;24.40;42.00;;;;;;5009488;28;45637;-59
2023/03/28 10:21:20;;;;;;;0.10;0.10;;;24.40;42.10;;;;;;5006982;28;45396;-58
2023/03/28 10:23:58;;;;;;;0.40;0.20;;;24.40;42.10;;;;;;5016218;28;45642;-58
2023/03/28 10:26:25;;;;;;;1.45;0.20;;;24.40;41.80;;;;;;5011550;28;46200;-54
2023/03/28 10:28:53;;;;;;;0.30;0.15;;;24.40;42.00;;;;;;5010608;28;44869;-58
2023/03/28 10:31:29;;;;;;;0.25;0.17;;;24.50;42.10;;;;;;4973952;28;45423;-58
2023/03/28 10:33:56;;;;;;;0.75;0.20;;;24.50;41.80;;;;;;4994129;28;45653;-58
2023/03/28 10:36:32;;;;;;;0.32;0.20;;;24.50;42.00;;;;;;5010907;28;45135;-58
2023/03/28 10:38:58;;;;;;;0.20;0.20;;;24.50;41.70;;;;;;5015627;28;45247;-58
2023/03/28 10:41:25;;;;;;;1.63;0.20;;;24.50;41.90;;;;;;4991601;28;44780;-58
2023/03/28 10:43:50;;;;;;;0.75;0.10;;;24.50;41.90;;;;;;5013937;28;45226;-58
2023/03/28 10:46:25;;;;;;;0.28;0.28;;;24.50;41.90;;;;;;5007448;28;47099;-57
2023/03/28 10:48:58;;;;;;;0.10;0.10;;;24.60;41.90;;;;;;5024438;28;45474;-57
2023/03/28 10:51:24;;;;;;;0.95;0.17;;;24.60;41.90;;;;;;5008747;28;45682;-57
2023/03/28 10:54:11;;;;;;;0.35;0.17;;;24.60;41.90;;;;;;5013891;28;44871;-56
2023/03/28 10:56:41;;;;;;;0.20;0.00;;;24.50;41.70;;;;;;5007079;28;46093;-59
2023/03/28 10:59:30;;;;;;;0.70;0.20;;;24.40;41.90;;;;;;5015043;28;45135;-58
2023/03/28 11:01:59;;;;;;;0.15;0.10;;;24.40;42.10;;;;;;4995059;28;45784;-60
2023/03/28 11:04:51;;;;;;;0.30;0.20;;;24.40;42.20;;;;;;4981253;28;44916;-58
2023/03/28 11:07:36;;;;;;;1.77;0.28;;;24.40;41.90;;;;;;4975167;28;46186;-59
2023/03/28 11:10:28;;;;;;;0.77;0.10;;;24.40;42.20;;;;;;4983476;28;46679;-61
2023/03/28 11:13:12;;;;;;;0.30;0.10;;;24.50;41.80;;;;;;4994762;28;45291;-60
2023/03/28 11:15:55;;;;;;;0.25;0.10;;;24.50;41.70;;;;;;4988904;28;45875;-59
2023/03/28 11:18:39;;;;;;;0.15;0.10;;;24.60;41.90;;;;;;4994412;28;45432;-57
2023/03/28 11:21:14;;;;;;;0.20;0.13;;;24.60;41.90;;;;;;4970946;28;44629;-58
2023/03/28 11:23:44;;;;;;;0.20;0.10;;;24.60;41.90;;;;;;4978167;28;44768;-58
2023/03/28 11:26:15;;;;;;;0.35;0.10;;;24.70;41.90;;;;;;4973523;28;45649;-59
2023/03/28 11:29:03;;;;;;;1.73;0.10;;;24.70;41.90;;;;;;4976651;28;45354;-59
2023/03/28 11:31:36;;;;;;;0.70;0.20;;;24.70;41.70;;;;;;4986429;28;45297;-57
2023/03/28 11:34:21;;;;;;;0.30;0.20;;;24.70;41.80;;;;;;4982374;28;45220;-58
2023/03/28 11:37:06;;;;;;;0.40;0.20;;;24.60;42.10;;;;;;4962115;28;45251;-60
2023/03/28 11:39:37;;;;;;;0.20;0.10;;;24.50;42.10;;;;;;4993285;28;46910;-59
2023/03/28 11:42:09;;;;;;;2.30;0.20;;;24.60;42.20;;;;;;4969266;28;45333;-55
2023/03/28 11:44:42;;;;;;;0.45;0.13;;;24.60;42.20;;;;;;4979809;28;45324;-57
2023/03/28 11:47:11;;;;;;;0.68;0.20;;;24.60;42.10;;;;;;4953143;28;45161;-58
2023/03/28 11:49:49;;;;;;;0.40;0.10;;;24.70;42.10;;;;;;4983444;28;45386;-62
2023/03/28 11:52:37;;;;;;;0.52;0.20;;;24.80;41.90;;;;;;4974381;28;45372;-60
2023/03/28 11:55:26;;;;;;;0.95;0.20;;;24.80;41.80;;;;;;4998422;28;45283;-61
2023/03/28 11:58:02;;;;;;;0.22;0.15;;;24.80;42.00;;;;;;4977925;28;45937;-59
2023/03/28 12:00:42;;;;;;;0.20;0.10;;;24.80;42.00;;;;;;4980985;28;45479;-61
2023/03/28 12:03:16;;;;;;;0.08;0.08;;;24.80;41.80;;;;;;4971752;28;45743;-60
2023/03/28 12:05:51;;;;;;;0.65;0.22;;;24.70;42.10;;;;;;5009491;28;45252;-57
2023/03/28 12:08:22;;;;;;;0.85;0.30;;;24.60;42.30;;;;;;4998275;28;45334;-60
2023/03/28 12:10:58;;;;;;;0.20;0.10;;;24.70;42.40;;;;;;5009769;28;46654;-60
2023/03/28 12:13:35;;;;;;;0.20;0.13;;;24.70;42.20;;;;;;5008684;28;45485;-61
2023/03/28 12:16:08;;;;;;;0.25;0.20;;;24.70;42.20;;;;;;5000694;28;45351;-59
2023/03/28 12:18:45;;;;;;;0.75;0.10;;;24.80;42.30;;;;;;5016442;28;45563;-59
2023/03/28 12:21:32;;;;;;;0.40;0.20;;;24.80;42.10;;;;;;5008207;28;45914;-60
2023/03/28 12:24:07;;;;;;;0.63;0.20;;;24.90;42.00;;;;;;5008443;28;45235;-60
2023/03/28 12:26:55;;;;;;;0.25;0.10;;;24.90;42.20;;;;;;4975011;28;45319;-59
2023/03/28 12:29:33;;;;;;;0.63;0.13;;;24.90;42.00;;;;;;5003379;28;45394;-60
2023/03/28 12:32:20;;;;;;;0.17;0.10;;;24.80;42.00;;;;;;5006387;28;47710;-60
2023/03/28 12:34:50;;;;;;;0.40;0.20;;;24.80;42.20;;;;;;5000961;28;44941;-60
2023/03/28 12:37:32;;;;;;;0.90;0.30;;;24.70;42.40;;;;;;5004421;28;45759;-60
2023/03/28 12:40:24;;;;;;;0.50;0.10;;;24.80;42.30;;;;;;4991669;28;45883;-60
2023/03/28 12:42:51;;;;;;;1.10;0.10;;;24.80;42.30;;;;;;5023357;28;45843;-59
2023/03/28 12:45:44;;;;;;;0.75;0.20;;;24.80;42.40;;;;;;4989409;28;45301;-61
2023/03/28 12:48:31;;;;;;;1.88;0.10;;;24.90;42.10;;;;;;5010574;28;45059;-59
2023/03/28 12:51:05;;;;;;;0.35;0.20;;;25.00;42.20;;;;;;5010647;28;45299;-61
2023/03/28 12:53:31;;;;;;;0.20;0.10;;;25.00;42.20;;;;;;5012315;28;45600;-59
2023/03/28 12:55:57;;;;;;;0.38;0.20;;;25.00;42.20;;;;;;5008481;28;45497;-61
2023/03/28 12:58:27;;;;;;;0.60;0.20;;;25.00;42.20;;;;;;5001066;28;45372;-60
2023/03/28 13:01:08;;;;;;;0.40;0.15;;;24.90;42.30;;;;;;5006403;28;45732;-59
2023/03/28 13:03:53;;;;;;;0.30;0.20;;;24.80;42.50;;;;;;5016144;28;45148;-58
2023/03/28 13:06:42;;;;;;;0.40;0.20;;;24.80;42.50;;;;;;5012967;28;45230;-60
2023/03/28 13:09:34;;;;;;;0.85;0.20;;;24.80;42.40;;;;;;5009791;28;45485;-59
2023/03/28 13:12:28;;;;;;;0.63;0.20;;;24.80;42.40;;;;;;5003396;28;45580;-59
2023/03/28 13:15:00;;;;;;;0.95;0.13;;;24.90;42.30;;;;;;5001613;28;47095;-59
2023/03/28 13:17:27;;;;;;;0.10;0.10;;;25.00;42.40;;;;;;5009258;28;45342;-59
2023/03/28 13:20:13;;;;;;;0.43;0.20;;;25.00;42.30;;;;;;5018532;28;45982;-59
2023/03/28 13:22:59;;;;;;;0.50;0.20;;;25.10;42.10;;;;;;5003192;28;47164;-60
2023/03/28 13:25:31;;;;;;;0.30;0.10;;;25.00;42.10;;;;;;4995133;28;45917;-58
2023/03/28 13:27:59;;;;;;;0.10;0.10;;;25.00;42.40;;;;;;4965599;28;44975;-61
2023/03/28 13:30:31;;;;;;;1.50;0.20;;;24.90;42.60;;;;;;4984632;28;44881;-60
2023/03/28 13:33:06;;;;;;;0.75;0.20;;;24.80;42.70;;;;;;4982690;28;45500;-62
2023/03/28 13:35:57;;;;;;;0.60;0.30;;;24.90;42.70;;;;;;4992918;28;45340;-60
2023/03/28 13:38:28;;;;;;;0.20;0.10;;;24.90;42.50;;;;;;5001174;28;45165;-59
2023/03/28 13:41:05;;;;;;;1.52;0.20;;;25.00;42.60;;;;;;5012411;28;45282;-54
2023/03/28 13:43:34;;;;;;;0.82;0.15;;;25.00;42.50;;;;;;5016852;28;45080;-59
2023/03/28 13:46:05;;;;;;;1.20;0.30;;;25.10;42.50;;;;;;5005959;28;46057;-59
2023/03/28 13:48:54;;;;;;;0.30;0.20;;;25.10;42.40;;;;;;4999916;28;45364;-56
2023/03/28 13:51:25;;;;;;;0.10;0.10;;;25.10;42.20;;;;;;5002685;28;45198;-58
2023/03/28 13:53:51;;;;;;;3.55;0.35;;;25.10;42.50;;;;;;4985688;28;45178;-59
2023/03/28 13:56:22;;;;;;;0.47;0.20;;;25.00;42.60;;;;;;4979110;28;45697;-58
2023/03/28 13:58:49;;;;;;;0.40;0.20;;;24.90;42.80;;;;;;4998364;28;45956;-59
2023/03/28 14:01:19;;;;;;;0.65;0.22;;;24.90;42.90;;;;;;4983317;28;45698;-58
2023/03/28 14:03:45;;;;;;;0.40;0.20;;;24.90;42.90;;;;;;5013074;28;45522;-59
2023/03/28 14:06:21;;;;;;;0.30;0.22;;;25.00;42.80;;;;;;5000007;28;46002;-55
2023/03/28 14:08:48;;;;;;;0.15;0.15;;;25.00;42.80;;;;;;4999603;28;45282;-59
2023/03/28 14:11:15;;;;;;;0.52;0.15;;;25.10;42.70;;;;;;4974751;28;45818;-59
2023/03/28 14:13:41;;;;;;;1.10;0.10;;;25.10;42.60;;;;;;4998873;28;45464;-59
2023/03/28 14:16:08;;;;;;;0.65;0.20;;;25.20;42.60;;;;;;5002880;28;46580;-58
2023/03/28 14:18:36;;;;;;;0.47;0.20;;;25.10;42.50;;;;;;5013733;28;45518;-56
2023/03/28 14:21:02;;;;;;;1.48;0.20;;;25.10;42.50;;;;;;4990901;28;45454;-59
2023/03/28 14:23:33;;;;;;;0.30;0.20;;;25.00;42.70;;;;;;4994703;28;46418;-59
2023/03/28 14:26:06;;;;;;;1.38;0.10;;;25.00;42.80;;;;;;4979898;28;47163;-59
2023/03/28 14:28:31;;;;;;;1.75;0.20;;;24.90;42.90;;;;;;4998184;28;46596;-59
2023/03/28 14:30:57;;;;;;;0.30;0.10;;;24.90;43.00;;;;;;4972840;28;45795;-59
2023/03/28 14:33:23;;;;;;;0.57;0.20;;;25.00;43.00;;;;;;4995213;28;44743;-59
2023/03/28 14:36:00;;;;;;;0.93;0.17;;;25.00;42.90;;;;;;4975779;28;46827;-59
2023/03/28 14:38:35;;;;;;;0.20;0.15;;;25.10;42.80;;;;;;4993628;28;45622;-58
2023/03/28 14:41:14;;;;;;;0.50;0.20;;;25.20;42.70;;;;;;5012610;28;44753;-60
2023/03/28 14:43:39;;;;;;;1.35;0.17;;;25.20;42.70;;;;;;5012452;28;45701;-59
2023/03/28 14:46:06;;;;;;;0.32;0.22;;;25.20;42.70;;;;;;5005735;28;46976;-59
2023/03/28 14:48:32;;;;;;;0.50;0.30;;;25.10;42.60;;;;;;4994699;28;45302;-58
2023/03/28 14:50:59;;;;;;;0.20;0.20;;;25.10;42.80;;;;;;4992267;28;45126;-59
2023/03/28 14:53:29;;;;;;;0.68;0.20;;;25.00;42.90;;;;;;4993352;28;45225;-59
2023/03/28 14:55:57;;;;;;;0.30;0.13;;;25.00;43.00;;;;;;5009410;28;46092;-58
2023/03/28 14:58:22;;;;;;;0.32;0.20;;;25.00;43.10;;;;;;4994391;28;45511;-56
2023/03/28 15:00:53;;;;;;;0.20;0.15;;;25.00;43.10;;;;;;4988378;28;45456;-58
2023/03/28 15:03:30;;;;;;;4.20;0.20;;;25.00;43.00;;;;;;4989454;28;45306;-57
2023/03/28 15:05:55;;;;;;;2.72;0.20;;;25.10;42.90;;;;;;4991983;28;45260;-55
2023/03/28 15:08:29;;;;;;;0.20;0.20;;;25.20;42.90;;;;;;4991472;28;45325;-57
2023/03/28 15:10:55;;;;;;;2.00;0.22;;;25.20;42.80;;;;;;4999510;28;44821;-57
2023/03/28 15:13:36;;;;;;;0.10;0.10;;;25.30;42.80;;;;;;5010257;28;45356;-57
2023/03/28 15:16:04;;;;;;;0.73;0.20;;;25.20;42.60;;;;;;5006098;28;46242;-60
2023/03/28 15:18:32;;;;;;;0.30;0.22;;;25.10;42.80;;;;;;5012759;28;45353;-57
2023/03/28 15:21:01;;;;;;;0.98;0.30;;;25.10;42.90;;;;;;5005986;28;45066;-57
2023/03/28 15:23:35;;;;;;;0.35;0.22;;;24.90;43.10;;;;;;5008688;28;46121;-55
2023/03/28 15:26:11;;;;;;;0.55;0.10;;;25.00;43.30;;;;;;5003894;28;46951;-59
2023/03/28 15:28:36;;;;;;;0.10;0.10;;;24.90;43.10;;;;;;5013133;28;45167;-60
2023/03/28 15:31:02;;;;;;;0.70;0.15;;;24.90;43.30;;;;;;5004254;28;45329;-57
2023/03/28 15:33:30;;;;;;;0.40;0.20;;;24.80;43.30;;;;;;5008472;28;44716;-55
2023/03/28 15:36:16;;;;;;;0.40;0.20;;;24.70;43.40;;;;;;5004177;28;45476;-56
2023/03/28 15:38:41;;;;;;;0.43;0.20;;;24.60;43.50;;;;;;5007212;28;45594;-54
2023/03/28 15:41:20;;;;;;;2.35;0.25;;;24.60;43.60;;;;;;4981477;28;45395;-58
2023/03/28 15:44:24;;;;;;;0.73;0.22;;;24.50;43.70;;;;;;5007459;28;45692;-57
2023/03/28 15:46:50;;;;;;;0.35;0.10;;;24.50;43.70;;;;;;5002573;28;47086;-56
2023/03/28 15:49:16;;;;;;;0.60;0.22;;;24.40;43.80;;;;;;5005046;28;45311;-57
2023/03/28 15:51:49;;;;;;;1.00;0.20;;;24.30;43.80;;;;;;4999187;28;45225;-57
2023/03/28 15:54:15;;;;;;;0.65;0.20;;;24.30;43.90;;;;;;5006837;28;44970;-57
2023/03/28 15:56:43;;;;;;;0.40;0.20;;;24.20;44.00;;;;;;5003115;28;46171;-55
2023/03/28 15:59:10;;;;;;;0.82;0.38;;;24.10;44.00;;;;;;4992530;28;45723;-54
2023/03/28 16:01:35;;;;;;;1.15;0.45;;;24.10;44.10;;;;;;5001402;28;45341;-59
2023/03/28 16:04:24;;;;;;;0.55;0.20;;;24.00;44.20;;;;;;5000679;28;45642;-57